Terminal Aerodrome Forecast
Issued by NWS Boston, MA

Current Version | Previous Version | Text Only | Print | Product List | Glossary On
Versions: 1 2 3 4 5 6 7 8 9 10 11 12 13 14 15 16 17 18 19 20 21 22 23 24 25
000
FTUS41 KBOX 240823 AAA
TAFBDL
TAF AMD
KBDL 240823Z 2408/2512 VRB04KT P6SM BKN130 OVC250
     FM241100 00000KT P6SM VCSH OVC100
     FM241300 08005KT P6SM OVC090
     FM251100 05006KT P6SM VCSH OVC060=

USA.gov is the U.S. government's official web portal to all federal, state and local government web resources and services.